createdAt,value
2022-07-30T00:01:43.570Z,2.55
2022-07-30T00:04:10.262Z,2.50
2022-07-30T00:06:37.847Z,3.10
2022-07-30T00:09:04.372Z,2.90
2022-07-30T00:11:30.872Z,2.80
2022-07-30T00:13:57.392Z,3.15
2022-07-30T00:16:23.990Z,2.83
2022-07-30T00:18:50.525Z,2.78
2022-07-30T00:21:20.270Z,3.80
2022-07-30T00:24:01.902Z,2.90
2022-07-30T00:26:28.737Z,2.88
2022-07-30T00:28:55.245Z,2.70
2022-07-30T00:31:21.748Z,2.72
2022-07-30T00:33:48.244Z,3.00
2022-07-30T00:36:14.793Z,3.15
2022-07-30T00:38:41.285Z,3.20
2022-07-30T00:41:07.855Z,3.15
2022-07-30T00:43:35.296Z,3.08
2022-07-30T00:46:01.837Z,2.95
2022-07-30T00:48:28.385Z,3.20
2022-07-30T00:50:54.891Z,3.08
2022-07-30T00:53:21.384Z,3.13
2022-07-30T00:55:47.887Z,2.75
2022-07-30T00:58:14.392Z,2.70
2022-07-30T01:00:41.033Z,3.03
2022-07-30T01:03:07.779Z,3.40
2022-07-30T01:05:34.360Z,3.47
2022-07-30T01:08:00.882Z,3.40
2022-07-30T01:10:27.368Z,3.40
2022-07-30T01:12:54.499Z,3.40
2022-07-30T01:15:21.638Z,3.00
2022-07-30T01:17:52.882Z,3.45
2022-07-30T01:20:25.777Z,2.90
2022-07-30T01:23:20.890Z,2.22
2022-07-30T01:25:52.819Z,3.10
2022-07-30T01:28:23.976Z,2.92
2022-07-30T01:30:50.870Z,3.10
2022-07-30T01:33:18.914Z,2.90
2022-07-30T01:35:46.541Z,3.17
2022-07-30T01:38:16.530Z,3.00
2022-07-30T01:40:44.307Z,3.17
2022-07-30T01:43:11.201Z,3.35
2022-07-30T01:45:41.487Z,2.95
2022-07-30T01:48:12.284Z,3.50
2022-07-30T01:50:42.359Z,3.17
2022-07-30T01:53:08.986Z,3.30
2022-07-30T01:55:40.122Z,3.28
2022-07-30T01:58:07.172Z,3.20
2022-07-30T02:00:36.979Z,3.42
2022-07-30T02:03:05.234Z,3.20
2022-07-30T02:05:32.827Z,3.20
2022-07-30T02:08:04.799Z,3.35
2022-07-30T02:10:35.666Z,3.58
2022-07-30T02:13:05.389Z,3.75
2022-07-30T02:15:43.802Z,4.00
2022-07-30T02:18:17.092Z,4.35
2022-07-30T02:20:45.906Z,4.13
2022-07-30T02:23:17.291Z,4.40
2022-07-30T02:25:48.305Z,4.47
2022-07-30T02:28:15.865Z,4.60
2022-07-30T02:30:47.486Z,4.47
2022-07-30T02:33:15.371Z,5.20
2022-07-30T02:35:41.876Z,4.78
2022-07-30T02:38:09.316Z,5.10
2022-07-30T02:40:35.816Z,4.25
2022-07-30T02:43:04.026Z,4.43
2022-07-30T02:45:30.711Z,5.13
2022-07-30T02:48:03.022Z,5.07
2022-07-30T02:50:29.943Z,4.93
2022-07-30T02:52:56.749Z,4.18
2022-07-30T02:55:24.373Z,5.38
2022-07-30T02:57:52.374Z,5.00
2022-07-30T03:00:18.924Z,4.72
2022-07-30T03:02:46.340Z,4.70
2022-07-30T03:05:14.983Z,5.00
2022-07-30T03:07:42.179Z,4.60
2022-07-30T03:10:09.222Z,4.50
2022-07-30T03:12:37.181Z,4.30
2022-07-30T03:15:03.852Z,4.85
2022-07-30T03:17:35.763Z,5.07
2022-07-30T03:20:04.344Z,4.35
2022-07-30T03:22:33.281Z,4.88
2022-07-30T03:24:59.988Z,5.20
2022-07-30T03:27:26.817Z,5.25
2022-07-30T03:29:54.952Z,5.10
2022-07-30T03:32:26.058Z,5.32
2022-07-30T03:34:54.127Z,5.53
2022-07-30T03:37:21.403Z,5.72
2022-07-30T03:39:48.496Z,5.07
2022-07-30T03:42:15.770Z,5.97
2022-07-30T03:44:45.558Z,5.43
2022-07-30T03:47:12.738Z,5.40
2022-07-30T03:49:39.595Z,5.13
2022-07-30T03:52:06.876Z,4.70
2022-07-30T03:54:33.841Z,5.10
2022-07-30T03:57:01.942Z,5.70
2022-07-30T03:59:29.129Z,5.63
2022-07-30T04:02:06.707Z,4.40
2022-07-30T04:04:33.804Z,4.60
2022-07-30T04:07:00.683Z,4.65
2022-07-30T04:09:27.502Z,4.47
2022-07-30T04:11:54.003Z,4.35
2022-07-30T04:14:20.506Z,3.97
2022-07-30T04:17:16.828Z,4.32
2022-07-30T04:19:56.506Z,4.97
2022-07-30T04:22:32.970Z,4.43
2022-07-30T04:25:01.159Z,4.00
2022-07-30T04:27:28.641Z,4.78
2022-07-30T04:29:55.260Z,4.00
2022-07-30T04:32:21.814Z,5.18
2022-07-30T04:34:53.045Z,4.95
2022-07-30T04:37:23.076Z,5.00
2022-07-30T04:39:51.403Z,5.13
2022-07-30T04:42:17.897Z,5.10
2022-07-30T04:44:44.491Z,5.00
2022-07-30T04:47:11.005Z,5.25
2022-07-30T04:49:38.232Z,4.60
2022-07-30T04:52:05.762Z,4.82
2022-07-30T04:54:38.624Z,4.05
2022-07-30T04:57:06.843Z,4.50
2022-07-30T04:59:37.240Z,4.00
2022-07-30T05:02:04.585Z,4.28
2022-07-30T05:04:32.425Z,5.45
2022-07-30T05:07:00.779Z,5.00
2022-07-30T05:09:27.886Z,5.13
2022-07-30T05:11:56.044Z,5.60
2022-07-30T05:14:23.629Z,5.28
2022-07-30T05:16:50.918Z,4.50
2022-07-30T05:19:18.791Z,5.13
2022-07-30T05:21:45.400Z,4.47
2022-07-30T05:24:12.013Z,4.38
2022-07-30T05:26:38.559Z,4.13
2022-07-30T05:29:07.229Z,3.72
2022-07-30T05:31:34.731Z,4.63
2022-07-30T05:34:03.481Z,3.88
2022-07-30T05:36:30.508Z,3.80
2022-07-30T05:38:57.174Z,3.90
2022-07-30T05:41:32.224Z,3.95
2022-07-30T05:44:00.116Z,3.53
2022-07-30T05:46:27.182Z,4.25
2022-07-30T05:48:54.038Z,3.80
2022-07-30T05:51:22.198Z,3.70
2022-07-30T05:53:49.271Z,3.80
2022-07-30T05:56:15.790Z,3.92
2022-07-30T05:58:42.396Z,3.85
2022-07-30T06:01:09.021Z,3.58
2022-07-30T06:03:35.754Z,4.15
2022-07-30T06:06:06.974Z,4.13
2022-07-30T06:08:33.891Z,4.07
2022-07-30T06:11:00.412Z,3.20
2022-07-30T06:13:26.992Z,4.00
2022-07-30T06:15:53.548Z,4.07
2022-07-30T06:18:20.086Z,3.60
2022-07-30T06:20:51.644Z,4.20
2022-07-30T06:23:18.504Z,4.00
2022-07-30T06:25:45.038Z,4.55
2022-07-30T06:28:35.079Z,4.22
2022-07-30T06:30:58.255Z,4.30
2022-07-30T06:33:24.805Z,4.22
2022-07-30T06:35:51.363Z,4.63
2022-07-30T06:38:17.929Z,4.72
2022-07-30T06:40:44.522Z,4.18
2022-07-30T06:43:11.039Z,4.15
2022-07-30T06:45:37.581Z,4.05
2022-07-30T06:48:04.309Z,4.55
2022-07-30T06:50:30.805Z,4.05
2022-07-30T06:52:57.443Z,4.35
2022-07-30T06:55:24.551Z,4.38
2022-07-30T06:57:51.062Z,4.10
2022-07-30T07:00:17.784Z,3.75
2022-07-30T07:02:44.343Z,4.10
2022-07-30T07:05:11.467Z,3.80
2022-07-30T07:07:43.002Z,3.80
2022-07-30T07:10:13.207Z,3.92
2022-07-30T07:12:39.796Z,4.13
2022-07-30T07:15:06.749Z,3.80
2022-07-30T07:17:33.265Z,3.90
2022-07-30T07:20:02.524Z,3.72
2022-07-30T07:22:29.655Z,3.40
2022-07-30T07:24:56.182Z,3.78
2022-07-30T07:27:22.693Z,3.92
2022-07-30T07:30:01.294Z,3.55
2022-07-30T07:32:33.742Z,3.85
2022-07-30T07:35:00.268Z,3.90
2022-07-30T07:37:26.986Z,4.05
2022-07-30T07:39:53.520Z,3.67
2022-07-30T07:42:20.022Z,3.50
2022-07-30T07:44:46.511Z,3.42
2022-07-30T07:47:13.028Z,3.28
2022-07-30T07:49:39.540Z,3.53
2022-07-30T07:52:06.400Z,3.83
2022-07-30T07:54:33.156Z,3.58
2022-07-30T07:57:02.427Z,3.58
2022-07-30T07:59:40.202Z,3.88
2022-07-30T08:02:08.334Z,3.55
2022-07-30T08:04:35.278Z,3.88
2022-07-30T08:07:02.205Z,3.67
2022-07-30T08:09:43.879Z,3.70
2022-07-30T08:12:12.367Z,3.28
2022-07-30T08:14:39.063Z,3.95
2022-07-30T08:17:06.183Z,4.55
2022-07-30T08:19:33.134Z,4.68
2022-07-30T08:21:59.843Z,3.80
2022-07-30T08:24:26.777Z,3.03
2022-07-30T08:26:53.685Z,3.63
2022-07-30T08:29:20.273Z,3.55
2022-07-30T08:31:49.934Z,3.30
2022-07-30T08:34:16.562Z,3.13
2022-07-30T08:36:43.124Z,3.30
2022-07-30T08:39:09.920Z,3.75
2022-07-30T08:41:37.352Z,3.90
2022-07-30T08:44:06.842Z,3.47
2022-07-30T08:46:36.334Z,3.25
2022-07-30T08:49:06.476Z,3.22
2022-07-30T08:51:36.166Z,3.67
2022-07-30T08:54:04.409Z,3.10
2022-07-30T08:56:32.231Z,3.38
2022-07-30T08:59:00.292Z,3.33
2022-07-30T09:01:27.428Z,3.72
2022-07-30T09:03:54.178Z,3.45
2022-07-30T09:06:20.747Z,3.70
2022-07-30T09:08:47.354Z,3.60
2022-07-30T09:11:14.396Z,3.97
2022-07-30T09:13:42.284Z,3.90
2022-07-30T09:16:19.778Z,4.10
2022-07-30T09:18:46.366Z,4.22
2022-07-30T09:21:28.557Z,4.78
2022-07-30T09:24:15.243Z,4.63
2022-07-30T09:27:02.546Z,4.22
2022-07-30T09:29:30.138Z,3.92
2022-07-30T09:32:07.359Z,4.18
2022-07-30T09:34:35.936Z,3.67
2022-07-30T09:37:23.834Z,3.60
2022-07-30T09:39:56.258Z,2.95
2022-07-30T09:42:28.251Z,3.10
2022-07-30T09:45:06.727Z,2.72
2022-07-30T09:47:41.839Z,2.80
2022-07-30T09:50:09.679Z,2.88
2022-07-30T09:52:44.253Z,2.70
2022-07-30T09:55:29.212Z,2.42
2022-07-30T09:57:58.681Z,2.90
2022-07-30T10:00:26.873Z,2.80
2022-07-30T10:02:54.377Z,2.47
2022-07-30T10:05:21.440Z,2.70
2022-07-30T10:07:52.543Z,2.70
2022-07-30T10:10:21.115Z,2.50
2022-07-30T10:12:51.394Z,2.58
2022-07-30T10:15:21.452Z,2.97
2022-07-30T10:17:49.486Z,2.60
2022-07-30T10:20:17.774Z,2.88
2022-07-30T10:22:46.687Z,2.80
2022-07-30T10:25:18.847Z,2.83
2022-07-30T10:27:48.557Z,2.55
2022-07-30T10:30:15.606Z,2.67
2022-07-30T10:32:43.869Z,2.83
2022-07-30T10:35:10.515Z,2.70
2022-07-30T10:37:40.925Z,3.05
2022-07-30T10:40:18.224Z,2.78
2022-07-30T10:43:05.271Z,2.13
2022-07-30T10:45:45.501Z,2.35
2022-07-30T10:48:13.766Z,2.15
2022-07-30T10:50:53.543Z,2.28
2022-07-30T10:53:52.466Z,2.40
2022-07-30T10:56:25.403Z,2.90
2022-07-30T11:01:48.656Z,2.33
2022-07-30T11:04:29.520Z,2.33
2022-07-30T11:07:21.174Z,2.40
2022-07-30T11:10:05.129Z,2.28
2022-07-30T11:12:41.276Z,2.33
2022-07-30T11:15:18.627Z,2.22
2022-07-30T11:18:12.868Z,2.70
2022-07-30T11:20:41.153Z,2.35
2022-07-30T11:23:18.685Z,2.47
2022-07-30T11:25:50.165Z,2.83
2022-07-30T11:31:02.051Z,2.20
2022-07-30T11:33:36.875Z,1.80
2022-07-30T11:36:11.816Z,2.25
2022-07-30T11:39:06.911Z,2.40
2022-07-30T11:41:33.812Z,2.63
2022-07-30T11:44:28.903Z,2.92
2022-07-30T11:46:55.992Z,2.53
2022-07-30T11:49:22.565Z,2.20
2022-07-30T11:51:50.125Z,2.20
2022-07-30T11:54:16.703Z,2.30
2022-07-30T11:56:50.019Z,2.63
2022-07-30T11:59:16.801Z,1.92
2022-07-30T12:01:43.581Z,1.70
2022-07-30T12:04:10.088Z,2.80
2022-07-30T12:06:44.995Z,2.40
2022-07-30T12:09:11.985Z,2.25
2022-07-30T12:11:38.478Z,2.55
2022-07-30T12:14:05.831Z,1.80
2022-07-30T12:16:33.434Z,2.40
2022-07-30T12:19:06.776Z,2.10
2022-07-30T12:21:36.274Z,2.33
2022-07-30T12:24:13.654Z,2.30
2022-07-30T12:26:40.187Z,2.05
2022-07-30T12:29:13.244Z,2.33
2022-07-30T12:31:40.504Z,2.58
2022-07-30T12:34:21.148Z,2.42
2022-07-30T12:36:47.654Z,2.63
2022-07-30T12:39:20.710Z,2.60
2022-07-30T12:41:49.693Z,2.30
2022-07-30T12:44:40.069Z,2.60
2022-07-30T12:47:19.214Z,2.70
2022-07-30T12:49:49.690Z,2.42
2022-07-30T12:52:27.556Z,2.25
2022-07-30T12:55:06.091Z,2.05
2022-07-30T12:57:52.097Z,2.30
2022-07-30T13:00:18.708Z,2.10
2022-07-30T13:02:45.251Z,2.25
2022-07-30T13:05:12.217Z,2.30
2022-07-30T13:07:58.974Z,2.03
2022-07-30T13:10:30.845Z,2.38
2022-07-30T13:12:58.924Z,1.98
2022-07-30T13:15:25.480Z,2.38
2022-07-30T13:17:52.163Z,2.10
2022-07-30T13:20:19.238Z,2.38
2022-07-30T13:22:46.009Z,2.65
2022-07-30T13:25:12.834Z,3.00
2022-07-30T13:27:39.631Z,2.13
2022-07-30T13:30:10.288Z,2.63
2022-07-30T13:32:36.797Z,2.90
2022-07-30T13:35:03.595Z,2.28
2022-07-30T13:37:37.548Z,2.30
2022-07-30T13:40:06.002Z,2.42
2022-07-30T13:42:32.676Z,2.60
2022-07-30T13:44:59.223Z,2.28
2022-07-30T13:47:25.785Z,2.55
2022-07-30T13:49:52.366Z,2.40
2022-07-30T13:52:18.876Z,3.20
2022-07-30T13:54:45.489Z,3.53
2022-07-30T13:57:12.025Z,2.97
2022-07-30T13:59:38.536Z,2.50
2022-07-30T14:02:05.135Z,2.50
2022-07-30T14:04:31.790Z,3.15
2022-07-30T14:06:58.297Z,2.72
2022-07-30T14:09:26.065Z,2.72
2022-07-30T14:11:53.083Z,2.80
2022-07-30T14:14:19.968Z,3.17
2022-07-30T14:16:48.856Z,3.45
2022-07-30T14:19:23.356Z,2.35
2022-07-30T14:21:52.513Z,2.78
2022-07-30T14:24:19.065Z,2.80
2022-07-30T14:26:45.602Z,2.38
2022-07-30T14:29:12.137Z,2.30
2022-07-30T14:31:38.700Z,2.35
2022-07-30T14:34:05.494Z,2.20
2022-07-30T14:36:32.511Z,2.53
2022-07-30T14:39:00.637Z,2.92
2022-07-30T14:41:28.195Z,3.05
2022-07-30T14:43:54.736Z,3.08
2022-07-30T14:46:21.228Z,3.40
2022-07-30T14:48:47.794Z,2.05
2022-07-30T14:51:21.749Z,2.30
2022-07-30T14:53:52.148Z,3.00
2022-07-30T14:56:19.325Z,2.40
2022-07-30T14:58:46.104Z,2.75
2022-07-30T15:01:16.307Z,2.20
2022-07-30T15:03:44.379Z,2.47
2022-07-30T15:06:12.624Z,2.50
2022-07-30T15:08:39.214Z,2.42
2022-07-30T15:11:06.094Z,2.78
2022-07-30T15:13:34.495Z,2.83
2022-07-30T15:16:03.140Z,2.60
2022-07-30T15:18:29.654Z,2.60
2022-07-30T15:20:56.356Z,3.20
2022-07-30T15:23:22.869Z,3.25
2022-07-30T15:25:49.428Z,3.80
2022-07-30T15:28:15.969Z,3.40
2022-07-30T15:30:42.632Z,2.47
2022-07-30T15:33:09.284Z,3.28
2022-07-30T15:35:36.664Z,3.00
2022-07-30T15:38:03.775Z,3.30
2022-07-30T15:40:30.681Z,2.97
2022-07-30T15:42:57.191Z,2.53
2022-07-30T15:45:24.973Z,2.92
2022-07-30T15:47:51.787Z,3.03
2022-07-30T15:50:18.337Z,3.10
2022-07-30T15:52:45.195Z,2.90
2022-07-30T15:55:12.513Z,2.70
2022-07-30T15:57:39.099Z,2.95
2022-07-30T16:00:08.373Z,3.25
2022-07-30T16:02:35.091Z,3.08
2022-07-30T16:05:01.904Z,2.60
2022-07-30T16:07:28.505Z,2.53
2022-07-30T16:09:55.506Z,2.75
2022-07-30T16:12:22.001Z,2.50
2022-07-30T16:14:48.528Z,2.30
2022-07-30T16:17:16.341Z,2.55
2022-07-30T16:19:44.883Z,2.20
2022-07-30T16:22:12.299Z,2.35
2022-07-30T16:24:41.872Z,2.38
2022-07-30T16:27:10.095Z,2.60
2022-07-30T16:29:36.653Z,2.25
2022-07-30T16:32:03.540Z,2.45
2022-07-30T16:34:30.247Z,2.40
2022-07-30T16:36:56.753Z,2.28
2022-07-30T16:39:23.465Z,2.70
2022-07-30T16:41:49.960Z,2.40
2022-07-30T16:44:16.463Z,2.50
2022-07-30T16:46:43.028Z,2.25
2022-07-30T16:49:09.701Z,2.85
2022-07-30T16:51:36.360Z,2.72
2022-07-30T16:54:03.533Z,2.60
2022-07-30T16:56:30.031Z,2.72
2022-07-30T16:58:56.656Z,2.25
2022-07-30T17:01:23.461Z,2.50
2022-07-30T17:03:50.049Z,2.65
2022-07-30T17:06:16.587Z,2.50
2022-07-30T17:08:43.159Z,2.42
2022-07-30T17:11:11.712Z,2.67
2022-07-30T17:13:56.558Z,2.50
2022-07-30T17:16:23.199Z,2.70
2022-07-30T17:18:49.695Z,2.47
2022-07-30T17:21:16.292Z,2.30
2022-07-30T17:23:42.813Z,2.53
2022-07-30T17:26:10.728Z,2.72
2022-07-30T17:28:37.914Z,2.47
2022-07-30T17:31:05.291Z,3.40
2022-07-30T17:33:31.884Z,3.20
2022-07-30T17:35:58.447Z,2.95
2022-07-30T17:38:28.039Z,2.90
2022-07-30T17:40:55.095Z,2.92
2022-07-30T17:43:21.736Z,2.90
2022-07-30T17:45:48.279Z,2.95
2022-07-30T17:48:15.575Z,3.17
2022-07-30T17:50:42.108Z,3.40
2022-07-30T17:53:08.613Z,3.10
2022-07-30T17:55:35.463Z,3.38
2022-07-30T17:58:03.523Z,3.10
2022-07-30T18:00:30.256Z,2.50
2022-07-30T18:02:56.817Z,2.80
2022-07-30T18:05:23.376Z,2.42
2022-07-30T18:07:50.038Z,2.85
2022-07-30T18:10:16.582Z,2.97
2022-07-30T18:12:48.683Z,2.55
2022-07-30T18:15:16.681Z,2.33
2022-07-30T18:17:43.180Z,2.78
2022-07-30T18:20:10.002Z,2.88
2022-07-30T18:22:36.553Z,3.40
2022-07-30T18:25:03.531Z,2.83
2022-07-30T18:27:34.321Z,2.67
2022-07-30T18:30:00.879Z,2.90
2022-07-30T18:32:27.371Z,2.67
2022-07-30T18:34:54.176Z,2.83
2022-07-30T18:37:20.696Z,2.90
2022-07-30T18:39:47.227Z,3.15
2022-07-30T18:42:13.753Z,3.75
2022-07-30T18:44:40.256Z,2.90
2022-07-30T18:47:06.770Z,3.13
2022-07-30T18:49:37.155Z,3.35
2022-07-30T18:52:05.400Z,3.38
2022-07-30T18:54:32.272Z,3.30
2022-07-30T18:56:58.798Z,3.33
2022-07-30T18:59:25.307Z,3.40
2022-07-30T19:01:51.823Z,3.40
2022-07-30T19:04:18.437Z,2.90
2022-07-30T19:06:44.968Z,3.20
2022-07-30T19:09:17.381Z,3.60
2022-07-30T19:11:44.909Z,3.47
2022-07-30T19:14:13.021Z,3.72
2022-07-30T19:16:39.616Z,3.85
2022-07-30T19:19:06.112Z,3.00
2022-07-30T19:21:32.637Z,3.53
2022-07-30T19:23:59.142Z,4.13
2022-07-30T19:26:25.653Z,3.42
2022-07-30T19:28:52.187Z,4.68
2022-07-30T19:31:19.184Z,3.40
2022-07-30T19:33:45.777Z,3.95
2022-07-30T19:36:12.942Z,3.67
2022-07-30T19:38:41.996Z,3.97
2022-07-30T19:41:08.777Z,4.40
2022-07-30T19:43:35.439Z,4.57
2022-07-30T19:46:03.664Z,4.15
2022-07-30T19:48:31.863Z,4.60
2022-07-30T19:50:59.607Z,4.60
2022-07-30T19:53:31.048Z,4.55
2022-07-30T19:56:01.615Z,6.25
2022-07-30T19:58:28.300Z,5.60
2022-07-30T20:00:55.036Z,6.22
2022-07-30T20:03:26.226Z,6.07
2022-07-30T20:05:59.627Z,6.28
2022-07-30T20:08:27.158Z,6.40
2022-07-30T20:10:53.707Z,6.10
2022-07-30T20:13:25.256Z,7.47
2022-07-30T20:16:14.701Z,5.82
2022-07-30T20:18:42.105Z,5.35
2022-07-30T20:21:14.151Z,6.20
2022-07-30T20:23:41.832Z,7.00
2022-07-30T20:26:12.945Z,5.88
2022-07-30T20:28:45.773Z,5.55
2022-07-30T20:31:12.552Z,5.10
2022-07-30T20:33:40.000Z,5.45
2022-07-30T20:36:09.783Z,4.95
2022-07-30T20:38:38.771Z,6.10
2022-07-30T20:41:09.952Z,6.22
2022-07-30T20:43:51.460Z,7.10
2022-07-30T20:46:19.896Z,6.80
2022-07-30T20:48:46.613Z,6.88
2022-07-30T20:51:13.675Z,6.97
2022-07-30T20:53:41.896Z,8.60
2022-07-30T20:56:12.135Z,8.77
2022-07-30T20:58:40.330Z,8.85
2022-07-30T21:01:07.683Z,9.88
2022-07-30T21:03:34.208Z,9.95
2022-07-30T21:06:07.486Z,10.20
2022-07-30T21:08:34.450Z,9.40
2022-07-30T21:11:01.902Z,9.45
2022-07-30T21:13:28.720Z,9.13
2022-07-30T21:16:02.388Z,9.05
2022-07-30T21:18:30.556Z,10.25
2022-07-30T21:20:57.410Z,10.13
2022-07-30T21:23:24.722Z,9.48
2022-07-30T21:26:01.330Z,9.98
2022-07-30T21:28:30.163Z,8.27
2022-07-30T21:31:02.313Z,8.75
2022-07-30T21:33:31.121Z,10.20
2022-07-30T21:35:58.563Z,11.48
2022-07-30T21:38:26.500Z,9.70
2022-07-30T21:40:53.334Z,8.15
2022-07-30T21:43:28.768Z,8.90
2022-07-30T21:45:57.626Z,8.30
2022-07-30T21:48:24.518Z,8.30
2022-07-30T21:50:51.155Z,8.10
2022-07-30T21:53:17.659Z,6.75
2022-07-30T21:55:56.664Z,7.70
2022-07-30T21:58:26.062Z,7.60
2022-07-30T22:00:54.897Z,8.55
2022-07-30T22:04:05.285Z,8.50
2022-07-30T22:06:12.685Z,8.38
2022-07-30T22:08:39.482Z,7.72
2022-07-30T22:11:08.999Z,8.30
2022-07-30T22:13:35.938Z,7.85
2022-07-30T22:16:18.216Z,8.57
2022-07-30T22:18:45.587Z,8.35
2022-07-30T22:21:12.085Z,9.25
2022-07-30T22:23:41.112Z,7.43
2022-07-30T22:26:21.591Z,7.88
2022-07-30T22:28:48.103Z,7.93
2022-07-30T22:31:19.300Z,7.63
2022-07-30T22:33:45.825Z,7.40
2022-07-30T22:36:12.328Z,7.50
2022-07-30T22:38:39.158Z,8.13
2022-07-30T22:41:05.776Z,9.48
2022-07-30T22:43:35.457Z,7.10
2022-07-30T22:46:14.864Z,8.45
2022-07-30T22:48:54.224Z,10.10
2022-07-30T22:51:20.932Z,10.00
2022-07-30T22:54:10.400Z,10.27
2022-07-30T22:56:34.025Z,10.13
2022-07-30T22:59:00.559Z,9.48
2022-07-30T23:01:27.053Z,8.77
2022-07-30T23:03:53.565Z,8.73
2022-07-30T23:06:20.601Z,8.45
2022-07-30T23:08:47.347Z,8.43
2022-07-30T23:11:13.828Z,7.90
2022-07-30T23:13:40.451Z,7.55
2022-07-30T23:16:07.064Z,7.22
2022-07-30T23:18:35.093Z,7.10
2022-07-30T23:21:02.562Z,6.97
2022-07-30T23:23:30.946Z,6.68
2022-07-30T23:26:01.420Z,7.45
2022-07-30T23:28:27.958Z,7.75
2022-07-30T23:30:54.527Z,7.30
2022-07-30T23:33:21.025Z,7.38
2022-07-30T23:35:47.524Z,6.65
2022-07-30T23:38:14.023Z,6.82
2022-07-30T23:40:41.054Z,7.05
2022-07-30T23:43:07.564Z,8.20
2022-07-30T23:45:34.108Z,8.00
2022-07-30T23:48:03.508Z,7.65
2022-07-30T23:50:33.774Z,7.45
2022-07-30T23:53:01.610Z,7.85
2022-07-30T23:55:29.270Z,7.05
2022-07-30T23:57:56.224Z,7.32
